• Join FlightAware (Why Join?)
  • Login
  • US Flag 
05:52AM EDT


 

Airport Tracker/Info


-or-


 

Live Flight TrackerFlight Track Log ✈ SWA1728 ✈ 25-Apr-2013 ✈ KPHX - KLAX

Flight Track Log - Related Links

Times and Time Zones

All times are in EDT time to prevent confusion due to time zone crossing. See the SWA1728 flight status page for this flight to view local times or setup timezone preferences in your user account.

Time Position Orientation Groundspeed Altitude Reporting Facility
EDT Latitude Longitude Course Direction KTS MPH feet Rate Location/Type
09:23AM 33.4333 -111.9833 90° East 163 188 1,900  Level Phoenix TRACON
09:23AM 33.4333 -111.9500 90° East 204 235 2,600 1,560 Climbing Phoenix TRACON
09:24AM 33.4361 -111.9144 85° East 211 243 3,700 2,340 Climbing Albuquerque Center
09:25AM 33.3922 -111.8875 153° Southeast 215 247 6,200 2,400 Climbing Albuquerque Center
09:26AM 33.3678 -111.9636 249° West 266 306 8,600 2,400 Climbing Albuquerque Center
09:27AM 33.3772 -112.0592 277° West 290 334 11,100 2,820 Climbing Albuquerque Center
09:28AM 33.3886 -112.1722 277° West 338 389 14,400 3,120 Climbing Albuquerque Center
09:29AM 33.4003 -112.2883 277° West 349 402 17,500 2,700 Climbing Albuquerque Center
09:30AM 33.4119 -112.4081 277° West 360 414 20,000 2,580 Climbing Albuquerque Center
09:32AM 33.4361 -112.6431 277° West 373 429 25,200 2,400 Climbing Los Angeles Center
09:33AM 33.4514 -112.7925 277° West 379 436 27,200 1,860 Climbing Los Angeles Center
09:34AM 33.4883 -112.9211 289° West 414 476 29,100 2,040 Climbing Los Angeles Center
09:35AM 33.5328 -113.0433 294° West 407 468 31,400 1,380 Climbing Los Angeles Center
09:36AM 33.5756 -113.1658 293° West 401 461 32,000 240 Climbing Los Angeles Center
09:37AM 33.6183 -113.2875 293° West 399 459 32,000  Level Albuquerque Center
09:38AM 33.6667 -113.4239 293° West 395 455 32,000  Level Albuquerque Center
09:39AM 33.7100 -113.5475 293° West 399 459 32,000  Level Albuquerque Center
09:40AM 33.7542 -113.6728 293° West 404 465 32,000  Level Albuquerque Center
09:41AM 33.7978 -113.7989 293° West 408 470 32,000  Level Albuquerque Center
09:42AM 33.8417 -113.9239 293° West 408 470 32,000  Level Albuquerque Center
09:43AM 33.8850 -114.0497 293° West 406 467 32,000  Level Albuquerque Center
09:44AM 33.9283 -114.1758 293° West 408 470 32,000  Level Albuquerque Center
09:45AM 33.9753 -114.3092 293° West 409 471 32,000  Level Albuquerque Center
09:46AM 34.0219 -114.4469 292° West 409 471 32,000  Level Los Angeles Center
09:48AM 34.1483 -114.6697 304° West 402 463 32,000  Level Los Angeles Center
09:49AM 34.2167 -114.7739 308° West 398 458 32,000  Level Los Angeles Center
09:50AM 34.2833 -114.8803 307° West 400 460 32,000  Level Los Angeles Center
09:51AM 34.2975 -115.0072 278° West 388 447 32,000  Level Los Angeles Center
09:52AM 34.2672 -115.1964 259° West 410 472 32,000  Level Los Angeles Center
09:53AM 34.2464 -115.3322 260° West 413 475 32,000  Level Los Angeles Center
09:55AM 34.2250 -115.4669 259° West 410 472 32,000  Level Los Angeles Center
09:56AM 34.2042 -115.6039 260° West 414 476 32,000  Level Los Angeles Center
09:57AM 34.1811 -115.7397 258° West 414 476 32,000  Level Los Angeles Center
09:58AM 34.1583 -115.8797 259° West 420 483 32,000 -120 Level Los Angeles Center
09:59AM 34.1353 -116.0261 259° West 431 496 31,800 -780 Descending Los Angeles Center
10:00AM 34.1075 -116.1942 259° West 432 497 30,500 -1,140 Descending Los Angeles Center
10:01AM 34.0844 -116.3350 259° West 430 495 29,500 -1,020 Descending Los Angeles Center
10:02AM 34.0622 -116.4736 259° West 426 490 28,500 -1,620 Descending Los Angeles Center
10:03AM 34.0397 -116.6089 259° West 420 483 26,200 -2,280 Descending Los Angeles Center
10:04AM 34.0175 -116.7383 258° West 403 464 23,800 -2,340 Descending Los Angeles Center
10:05AM 33.9969 -116.8622 259° West 386 444 21,500 -2,460 Descending Los Angeles Center
10:05AM 33.9833 -116.9333 257° West 370 426 20,300 -2,460 Descending Southern California TRACON
10:06AM 33.9667 -117.0333 259° West 373 429 18,300 -1,680 Descending Southern California TRACON
10:07AM 33.9500 -117.1833 262° West 352 405 17,000 -660 Descending Southern California TRACON
10:08AM 33.9333 -117.2833 259° West 357 411 17,000 -900 Level Southern California TRACON
10:09AM 33.9333 -117.4000 270° West 361 415 15,400 -1,800 Descending Southern California TRACON
10:10AM 33.9667 -117.5000 292° West 337 388 13,600 -1,680 Descending Southern California TRACON
10:11AM 34.0167 -117.6000 301° West 334 384 12,200 -1,620 Descending Southern California TRACON
10:12AM 34.0167 -117.6833 270° West 308 354 10,600 -1,560 Descending Southern California TRACON
10:13AM 34.0167 -117.7833 270° West 293 337 9,300 -1,500 Descending Southern California TRACON
10:14AM 34.0000 -117.8833 259° West 292 336 7,700 -1,500 Descending Southern California TRACON
10:15AM 34.0000 -117.9667 270° West 286 329 6,600 -1,200 Descending Southern California TRACON
10:16AM 33.9833 -118.0500 256° West 255 293 5,600 -1,020 Descending Southern California TRACON
10:17AM 33.9833 -118.1167 270° West 227 261 4,600 -960 Descending Southern California TRACON
10:17AM 33.9786 -118.1444 258° West 243 280 4,300 -1,080 Descending Los Angeles Center
10:18AM 33.9714 -118.2186 263° West 232 267 3,100 -1,140 Descending Los Angeles Center
10:19AM 33.9633 -118.2889 262° West 223 257 2,000 -1,020 Descending Los Angeles Center
10:20AM 33.9578 -118.3519 264° West 180 207 1,000 -840 Descending Los Angeles Center
10:21AM 33.9536 -118.3944 263° West 150 173 300 -420 Descending Los Angeles Center
10:22AM 33.9497 -118.4364 264° West 146 168 200 -120 Descending Los Angeles Center
10:24AM 33.9425 -118.4081 90° East  Level Estimated